Winnett, Montana
Current Conditions -  °F | °C
As of 12:35 PM on Thursday 30 Oct 2014 (Local Time) from KMVH Reporting Station
Clear Clear  
Wind Chill: 54°   Ceiling: Unl
Heat Index: 54°   Visibility: 10mi
Dew Point: 30°   Wind: 15mph
Humidity: 41%   Direction: 180°S
Pressure: 30.31"   Gusts: NA
Location:  47°N, 108.35°W
Report Text: KMVH 301835Z AUTO 18013KT 10SM CLR 12/M01 A3031 RMK A01
Loading
Personal Weather Stations






























Interactive Weather Map
Tropical Storm Tracking
New forecast layout! Learn more

10-Day Weather Forecast

Advertisements
Track Severe Weather on mobile